• Join FlightAware (Why Join?)
  • Login
  • US Flag 
02:46PM EDT


 

Airport Tracker/Info


-or-


 

Live Flight TrackerFlight Track Log ✈ AMF1324 ✈ 25-Mar-2014 ✈ KBUF - KBGM

Flight Track Log - Related Links

Times and Time Zones

All times are in EDT time to prevent confusion due to time zone crossing. See the AMF1324 flight status page for this flight to view local times or setup timezone preferences in your user account.

Time Position Orientation Groundspeed Altitude Reporting Facility
EDT Latitude Longitude Course Direction KTS MPH feet Rate Location/Type
06:36AM 42.9333 -78.7333 216° Southwest 119 137 1,600  Level Buffalo TRACON
06:37AM 42.9167 -78.7500 216° Southwest 135 155 3,500 2,100 Climbing Buffalo TRACON
06:39AM 42.9167 -78.5972 90° East 198 228 8,500 1,740 Climbing Cleveland Center
06:40AM 42.9156 -78.5044 91° East 239 275 9,800 1,260 Climbing Cleveland Center
06:41AM 42.9031 -78.4136 101° East 255 293 11,100 1,320 Climbing Cleveland Center
06:42AM 42.8953 -78.3147 96° East 263 303 12,600 900 Climbing Cleveland Center
06:43AM 42.8889 -78.2119 95° East 275 316 13,000 180 Climbing Cleveland Center
06:44AM 42.8817 -78.1022 95° East 289 333 13,000  Level Cleveland Center
06:45AM 42.8736 -77.9911 96° East 292 336 13,000  Level Cleveland Center
06:46AM 42.8631 -77.8794 97° East 294 338 13,000  Level Cleveland Center
06:47AM 42.8478 -77.7683 101° East 295 339 13,000  Level Cleveland Center
06:48AM 42.8131 -77.6419 110° East 295 339 13,000  Level Cleveland Center
06:49AM 42.7669 -77.5517 125° Southeast 291 335 13,000  Level Cleveland Center
06:50AM 42.7186 -77.4628 126° Southeast 290 334 13,000  Level Cleveland Center
06:51AM 42.6781 -77.3647 119° Southeast 290 334 13,000  Level Cleveland Center
06:52AM 42.6375 -77.2667 119° Southeast 293 337 13,000  Level Cleveland Center
06:53AM 42.5975 -77.1697 119° Southeast 295 339 13,000  Level Cleveland Center
06:54AM 42.5578 -77.0697 118° Southeast 296 341 13,000  Level Cleveland Center
06:55AM 42.5175 -76.9692 118° Southeast 301 346 13,000  Level Cleveland Center
06:56AM 42.4778 -76.8669 118° Southeast 301 346 13,000 -420 Level Cleveland Center
06:57AM 42.4361 -76.7689 120° Southeast 301 346 12,300 -660 Descending New York Center
06:58AM 42.4128 -76.6542 105° East 301 346 11,800 -840 Descending New York Center
06:59AM 42.3933 -76.5403 103° East 307 353 10,700 -1,320 Descending New York Center
07:01AM 42.3686 -76.4011 103° East 315 362 8,900 -1,680 Descending Cleveland Center
07:01AM 42.3536 -76.3236 105° East 295 339 7,400 -1,800 Descending New York Center
07:02AM 42.3308 -76.2289 108° East 282 325 5,700 -1,440 Descending New York Center
07:03AM 42.3036 -76.1397 112° Southeast 263 303 4,600 -540 Descending New York Center
07:04AM 42.3028 -76.0697 91° East 221 254 4,700 -600 Climbing New York Center
07:05AM 42.2792 -76.0397 137° Southeast 142 163 3,500 -1,080 Descending New York Center
07:06AM 42.2550 -76.0211 150° Southeast 134 154 2,600 -900 Descending New York Center